METAR AND TAF INFORMATION
METAR FOR PANI
ADDS - METARS form results

(0534 UTC 26 August 2019)
Data provider http://aviationweather.gov/metar/data/
 
METAR text: PANI 260456Z AUTO 27008KT 10SM OVC100 13/08 A3000 RMK AO2 SLP161 T01330078
Conditions at: PANI (ANIAK , AK, US) observed 0456 UTC 26 August 2019
Temperature: 13.3°C (56°F)
Dewpoint: 7.8°C (46°F) [RH = 69%]
Pressure (altimeter): 30.00 inches Hg (1016.0 mb)
[Sea-level pressure: 1016.1 mb]
Winds: from the W (270 degrees) at 9 MPH (8 knots; 4.1 m/s)
Visibility: 10 or more miles (16+ km)
Ceiling: 10000 feet AGL
Clouds: overcast cloud deck at 10000 feet AGL
Weather: automated observation with no human augmentation;
there may or may not be significant weather present at this time

 AIRPORT MAP

 RUNWAY INFORMATION
Runway 05W Runway length 3000 ft Runway width 400 ft
Runway elevation 0 ft Runway displaced threshold 0 ft Runway heading 0
Runway 23W Runway length 3000 ft Runway width 400 ft
Runway elevation 0 ft Runway displaced threshold 0 ft Runway heading 0
Runway 10 Runway length 6000 ft Runway width 150 ft
Runway elevation 88 ft Runway displaced threshold 0 ft Runway heading 121
Runway 28 Runway length 6000 ft Runway width 150 ft
Runway elevation 88 ft Runway displaced threshold 0 ft Runway heading 301

 AIRPORT FREQUENCIES

 AIRPORT NEAR NAVIGATION AIDS
Type NDB Name Aniak Frequency 359 KHZ



We are a FlightSim virtual group and are in no way affiliated with RavnAir Group.

Powered by Virtual Airlines Manager [v2.6.2]